sensor_id;sensor_type;location;lat;lon;timestamp;P1;durP1;ratioP1;P2;durP2;ratioP2
13173;SDS011;6652;48.802;9.190;2023-05-14T00:01:02;15.93;;;12.13;;
13173;SDS011;6652;48.802;9.190;2023-05-14T00:03:29;15.10;;;12.20;;
13173;SDS011;6652;48.802;9.190;2023-05-14T00:05:55;16.30;;;12.48;;
13173;SDS011;6652;48.802;9.190;2023-05-14T00:08:22;15.00;;;13.18;;
13173;SDS011;6652;48.802;9.190;2023-05-14T00:10:49;17.48;;;11.60;;
13173;SDS011;6652;48.802;9.190;2023-05-14T00:13:16;15.57;;;12.10;;
13173;SDS011;6652;48.802;9.190;2023-05-14T00:15:44;17.20;;;11.30;;
13173;SDS011;6652;48.802;9.190;2023-05-14T00:18:11;19.17;;;12.05;;
13173;SDS011;6652;48.802;9.190;2023-05-14T00:20:38;17.27;;;12.55;;
13173;SDS011;6652;48.802;9.190;2023-05-14T00:23:04;17.52;;;12.73;;
13173;SDS011;6652;48.802;9.190;2023-05-14T00:25:31;19.75;;;11.85;;
13173;SDS011;6652;48.802;9.190;2023-05-14T00:27:58;13.50;;;11.65;;
13173;SDS011;6652;48.802;9.190;2023-05-14T00:30:25;16.70;;;11.05;;
13173;SDS011;6652;48.802;9.190;2023-05-14T00:32:54;14.15;;;11.52;;
13173;SDS011;6652;48.802;9.190;2023-05-14T00:35:21;14.52;;;12.25;;
13173;SDS011;6652;48.802;9.190;2023-05-14T00:37:47;15.13;;;11.98;;
13173;SDS011;6652;48.802;9.190;2023-05-14T00:40:14;18.33;;;12.57;;
13173;SDS011;6652;48.802;9.190;2023-05-14T00:42:41;15.10;;;12.00;;
13173;SDS011;6652;48.802;9.190;2023-05-14T00:45:08;17.05;;;12.32;;
13173;SDS011;6652;48.802;9.190;2023-05-14T00:47:36;14.98;;;12.40;;
13173;SDS011;6652;48.802;9.190;2023-05-14T00:50:06;20.80;;;13.75;;
13173;SDS011;6652;48.802;9.190;2023-05-14T00:52:33;16.25;;;12.80;;
13173;SDS011;6652;48.802;9.190;2023-05-14T00:55:02;18.17;;;13.80;;
13173;SDS011;6652;48.802;9.190;2023-05-14T00:57:30;17.80;;;13.45;;
13173;SDS011;6652;48.802;9.190;2023-05-14T01:00:01;19.33;;;13.50;;
13173;SDS011;6652;48.802;9.190;2023-05-14T01:02:28;17.08;;;14.23;;
13173;SDS011;6652;48.802;9.190;2023-05-14T01:04:55;21.98;;;14.43;;
13173;SDS011;6652;48.802;9.190;2023-05-14T01:07:26;19.08;;;14.43;;
13173;SDS011;6652;48.802;9.190;2023-05-14T01:10:00;19.65;;;15.52;;
13173;SDS011;6652;48.802;9.190;2023-05-14T01:12:32;19.23;;;14.38;;
13173;SDS011;6652;48.802;9.190;2023-05-14T01:15:05;21.50;;;14.77;;
13173;SDS011;6652;48.802;9.190;2023-05-14T01:17:38;18.23;;;14.45;;
13173;SDS011;6652;48.802;9.190;2023-05-14T01:20:07;20.00;;;14.07;;
13173;SDS011;6652;48.802;9.190;2023-05-14T01:22:36;19.58;;;14.88;;
13173;SDS011;6652;48.802;9.190;2023-05-14T01:25:03;17.35;;;13.98;;
13173;SDS011;6652;48.802;9.190;2023-05-14T01:27:33;16.27;;;12.98;;
13173;SDS011;6652;48.802;9.190;2023-05-14T01:30:06;18.15;;;14.70;;
13173;SDS011;6652;48.802;9.190;2023-05-14T01:32:38;21.48;;;14.68;;
13173;SDS011;6652;48.802;9.190;2023-05-14T01:35:06;18.02;;;13.50;;
13173;SDS011;6652;48.802;9.190;2023-05-14T01:37:36;19.55;;;14.25;;
13173;SDS011;6652;48.802;9.190;2023-05-14T01:40:05;17.63;;;13.68;;
13173;SDS011;6652;48.802;9.190;2023-05-14T01:42:33;18.08;;;15.10;;
13173;SDS011;6652;48.802;9.190;2023-05-14T01:45:00;17.95;;;14.45;;
13173;SDS011;6652;48.802;9.190;2023-05-14T01:47:27;17.83;;;14.10;;
13173;SDS011;6652;48.802;9.190;2023-05-14T01:49:54;18.45;;;14.57;;
13173;SDS011;6652;48.802;9.190;2023-05-14T01:52:21;18.92;;;14.60;;
13173;SDS011;6652;48.802;9.190;2023-05-14T01:54:50;18.38;;;15.48;;
13173;SDS011;6652;48.802;9.190;2023-05-14T01:57:16;22.25;;;16.17;;
13173;SDS011;6652;48.802;9.190;2023-05-14T01:59:43;19.25;;;15.07;;
13173;SDS011;6652;48.802;9.190;2023-05-14T02:02:10;21.85;;;16.05;;
13173;SDS011;6652;48.802;9.190;2023-05-14T02:04:37;20.15;;;16.63;;
13173;SDS011;6652;48.802;9.190;2023-05-14T02:07:03;19.67;;;15.73;;
13173;SDS011;6652;48.802;9.190;2023-05-14T02:09:30;22.13;;;16.25;;
13173;SDS011;6652;48.802;9.190;2023-05-14T02:11:58;20.25;;;15.55;;
13173;SDS011;6652;48.802;9.190;2023-05-14T02:14:25;21.55;;;16.27;;
13173;SDS011;6652;48.802;9.190;2023-05-14T02:16:52;17.98;;;14.88;;
13173;SDS011;6652;48.802;9.190;2023-05-14T02:19:19;23.52;;;15.93;;
13173;SDS011;6652;48.802;9.190;2023-05-14T02:21:46;21.05;;;15.57;;
13173;SDS011;6652;48.802;9.190;2023-05-14T02:24:13;19.65;;;16.10;;
13173;SDS011;6652;48.802;9.190;2023-05-14T02:26:40;23.35;;;15.02;;
13173;SDS011;6652;48.802;9.190;2023-05-14T02:29:08;20.02;;;15.75;;
13173;SDS011;6652;48.802;9.190;2023-05-14T02:31:35;23.15;;;16.30;;
13173;SDS011;6652;48.802;9.190;2023-05-14T02:34:02;16.95;;;14.25;;
13173;SDS011;6652;48.802;9.190;2023-05-14T02:36:30;19.67;;;15.23;;
13173;SDS011;6652;48.802;9.190;2023-05-14T02:38:57;18.67;;;16.02;;
13173;SDS011;6652;48.802;9.190;2023-05-14T02:41:24;19.45;;;15.23;;
13173;SDS011;6652;48.802;9.190;2023-05-14T02:43:51;21.73;;;15.23;;
13173;SDS011;6652;48.802;9.190;2023-05-14T02:46:20;19.83;;;15.40;;
13173;SDS011;6652;48.802;9.190;2023-05-14T02:48:47;20.75;;;15.40;;
13173;SDS011;6652;48.802;9.190;2023-05-14T02:51:13;18.55;;;14.68;;
13173;SDS011;6652;48.802;9.190;2023-05-14T02:53:40;17.30;;;14.15;;
13173;SDS011;6652;48.802;9.190;2023-05-14T02:56:07;20.30;;;15.50;;
13173;SDS011;6652;48.802;9.190;2023-05-14T02:58:34;15.95;;;13.70;;
13173;SDS011;6652;48.802;9.190;2023-05-14T03:01:01;20.10;;;14.15;;
13173;SDS011;6652;48.802;9.190;2023-05-14T03:03:29;22.00;;;14.77;;
13173;SDS011;6652;48.802;9.190;2023-05-14T03:05:56;18.52;;;14.55;;
13173;SDS011;6652;48.802;9.190;2023-05-14T03:08:23;19.65;;;15.00;;
13173;SDS011;6652;48.802;9.190;2023-05-14T03:10:50;19.63;;;14.60;;
13173;SDS011;6652;48.802;9.190;2023-05-14T03:13:16;16.27;;;14.07;;
13173;SDS011;6652;48.802;9.190;2023-05-14T03:15:44;20.55;;;15.45;;
13173;SDS011;6652;48.802;9.190;2023-05-14T03:18:11;17.98;;;13.80;;
13173;SDS011;6652;48.802;9.190;2023-05-14T03:20:39;18.10;;;15.18;;
13173;SDS011;6652;48.802;9.190;2023-05-14T03:23:06;17.65;;;13.77;;
13173;SDS011;6652;48.802;9.190;2023-05-14T03:25:33;20.83;;;14.18;;
13173;SDS011;6652;48.802;9.190;2023-05-14T03:28:00;16.98;;;13.82;;
13173;SDS011;6652;48.802;9.190;2023-05-14T03:30:27;18.27;;;13.68;;
13173;SDS011;6652;48.802;9.190;2023-05-14T03:32:54;17.08;;;14.73;;
13173;SDS011;6652;48.802;9.190;2023-05-14T03:35:21;17.77;;;14.63;;
13173;SDS011;6652;48.802;9.190;2023-05-14T03:37:49;21.63;;;13.82;;
13173;SDS011;6652;48.802;9.190;2023-05-14T03:40:17;18.52;;;13.13;;
13173;SDS011;6652;48.802;9.190;2023-05-14T03:42:43;16.50;;;13.05;;
13173;SDS011;6652;48.802;9.190;2023-05-14T03:45:10;18.25;;;13.25;;
13173;SDS011;6652;48.802;9.190;2023-05-14T03:47:37;20.65;;;13.77;;
13173;SDS011;6652;48.802;9.190;2023-05-14T03:50:04;18.15;;;13.18;;
13173;SDS011;6652;48.802;9.190;2023-05-14T03:52:32;17.30;;;13.10;;
13173;SDS011;6652;48.802;9.190;2023-05-14T03:55:00;19.55;;;12.38;;
13173;SDS011;6652;48.802;9.190;2023-05-14T03:57:27;15.02;;;12.75;;
13173;SDS011;6652;48.802;9.190;2023-05-14T03:59:54;15.27;;;12.10;;
13173;SDS011;6652;48.802;9.190;2023-05-14T04:02:21;17.88;;;12.77;;
13173;SDS011;6652;48.802;9.190;2023-05-14T04:04:47;13.82;;;12.27;;
13173;SDS011;6652;48.802;9.190;2023-05-14T04:07:14;13.70;;;11.65;;
13173;SDS011;6652;48.802;9.190;2023-05-14T04:09:41;15.38;;;12.48;;
13173;SDS011;6652;48.802;9.190;2023-05-14T04:12:09;20.77;;;13.00;;
13173;SDS011;6652;48.802;9.190;2023-05-14T04:14:36;15.68;;;12.80;;
13173;SDS011;6652;48.802;9.190;2023-05-14T04:17:03;17.30;;;12.07;;
13173;SDS011;6652;48.802;9.190;2023-05-14T04:19:30;15.02;;;11.88;;
13173;SDS011;6652;48.802;9.190;2023-05-14T04:23:13;19.52;;;12.85;;
13173;SDS011;6652;48.802;9.190;2023-05-14T05:10:31;15.23;;;12.00;;
13173;SDS011;6652;48.802;9.190;2023-05-14T06:45:39;10.68;;;8.60;;
13173;SDS011;6652;48.802;9.190;2023-05-14T06:52:01;11.35;;;8.63;;
13173;SDS011;6652;48.802;9.190;2023-05-14T07:02:02;9.82;;;8.27;;
13173;SDS011;6652;48.802;9.190;2023-05-14T07:04:48;12.05;;;8.82;;
13173;SDS011;6652;48.802;9.190;2023-05-14T07:08:10;10.45;;;8.60;;
13173;SDS011;6652;48.802;9.190;2023-05-14T07:10:40;11.20;;;9.13;;
13173;SDS011;6652;48.802;9.190;2023-05-14T07:13:07;12.50;;;8.73;;
13173;SDS011;6652;48.802;9.190;2023-05-14T07:15:34;11.23;;;8.30;;
13173;SDS011;6652;48.802;9.190;2023-05-14T07:18:02;12.18;;;8.85;;
13173;SDS011;6652;48.802;9.190;2023-05-14T07:20:29;12.68;;;9.07;;
13173;SDS011;6652;48.802;9.190;2023-05-14T07:22:56;13.68;;;9.30;;
13173;SDS011;6652;48.802;9.190;2023-05-14T07:25:23;13.48;;;8.63;;
13173;SDS011;6652;48.802;9.190;2023-05-14T07:27:50;16.45;;;9.82;;
13173;SDS011;6652;48.802;9.190;2023-05-14T07:30:16;12.93;;;8.75;;
13173;SDS011;6652;48.802;9.190;2023-05-14T07:32:43;11.95;;;9.40;;
13173;SDS011;6652;48.802;9.190;2023-05-14T07:35:13;11.13;;;8.90;;
13173;SDS011;6652;48.802;9.190;2023-05-14T07:38:08;11.68;;;8.68;;
13173;SDS011;6652;48.802;9.190;2023-05-14T07:40:35;11.23;;;8.45;;
13173;SDS011;6652;48.802;9.190;2023-05-14T07:43:02;11.35;;;7.97;;
13173;SDS011;6652;48.802;9.190;2023-05-14T07:45:28;10.05;;;8.05;;
13173;SDS011;6652;48.802;9.190;2023-05-14T07:47:55;9.75;;;7.97;;
13173;SDS011;6652;48.802;9.190;2023-05-14T07:50:24;13.25;;;7.97;;
13173;SDS011;6652;48.802;9.190;2023-05-14T07:52:50;10.10;;;7.97;;
13173;SDS011;6652;48.802;9.190;2023-05-14T07:55:17;11.48;;;8.35;;
13173;SDS011;6652;48.802;9.190;2023-05-14T07:57:45;11.27;;;7.88;;
13173;SDS011;6652;48.802;9.190;2023-05-14T08:00:12;13.80;;;7.68;;
13173;SDS011;6652;48.802;9.190;2023-05-14T08:02:40;9.50;;;7.20;;
13173;SDS011;6652;48.802;9.190;2023-05-14T08:05:07;8.85;;;6.80;;
13173;SDS011;6652;48.802;9.190;2023-05-14T08:07:35;9.27;;;7.47;;
13173;SDS011;6652;48.802;9.190;2023-05-14T08:10:02;12.50;;;7.40;;
13173;SDS011;6652;48.802;9.190;2023-05-14T08:12:31;7.32;;;6.53;;
13173;SDS011;6652;48.802;9.190;2023-05-14T08:14:58;11.63;;;6.88;;
13173;SDS011;6652;48.802;9.190;2023-05-14T08:17:25;9.15;;;6.97;;
13173;SDS011;6652;48.802;9.190;2023-05-14T08:19:52;10.15;;;7.78;;
13173;SDS011;6652;48.802;9.190;2023-05-14T08:22:19;10.30;;;8.60;;
13173;SDS011;6652;48.802;9.190;2023-05-14T08:24:47;10.45;;;7.85;;
13173;SDS011;6652;48.802;9.190;2023-05-14T08:27:14;9.23;;;8.32;;
13173;SDS011;6652;48.802;9.190;2023-05-14T08:29:41;9.68;;;8.10;;
13173;SDS011;6652;48.802;9.190;2023-05-14T08:32:11;9.50;;;7.90;;
13173;SDS011;6652;48.802;9.190;2023-05-14T08:34:38;12.55;;;8.57;;
13173;SDS011;6652;48.802;9.190;2023-05-14T08:37:04;8.80;;;7.85;;
13173;SDS011;6652;48.802;9.190;2023-05-14T08:39:31;12.05;;;8.02;;
13173;SDS011;6652;48.802;9.190;2023-05-14T08:41:59;10.25;;;8.80;;
13173;SDS011;6652;48.802;9.190;2023-05-14T08:44:32;9.30;;;8.30;;
13173;SDS011;6652;48.802;9.190;2023-05-14T08:47:20;12.57;;;8.52;;
13173;SDS011;6652;48.802;9.190;2023-05-14T08:49:51;10.27;;;8.43;;
13173;SDS011;6652;48.802;9.190;2023-05-14T08:52:22;12.30;;;8.10;;
13173;SDS011;6652;48.802;9.190;2023-05-14T08:54:49;9.35;;;8.02;;
13173;SDS011;6652;48.802;9.190;2023-05-14T08:57:19;12.82;;;8.32;;
13173;SDS011;6652;48.802;9.190;2023-05-14T08:59:48;11.90;;;8.60;;
13173;SDS011;6652;48.802;9.190;2023-05-14T09:02:15;9.48;;;8.43;;
13173;SDS011;6652;48.802;9.190;2023-05-14T09:04:45;10.63;;;8.48;;
13173;SDS011;6652;48.802;9.190;2023-05-14T09:07:13;10.18;;;8.50;;
13173;SDS011;6652;48.802;9.190;2023-05-14T09:09:40;9.90;;;8.93;;
13173;SDS011;6652;48.802;9.190;2023-05-14T09:12:09;12.45;;;9.50;;
13173;SDS011;6652;48.802;9.190;2023-05-14T09:14:37;10.50;;;8.88;;
13173;SDS011;6652;48.802;9.190;2023-05-14T09:17:04;10.57;;;9.10;;
13173;SDS011;6652;48.802;9.190;2023-05-14T09:19:31;10.35;;;8.75;;
13173;SDS011;6652;48.802;9.190;2023-05-14T09:21:58;13.60;;;10.02;;
13173;SDS011;6652;48.802;9.190;2023-05-14T09:24:25;13.52;;;9.23;;
13173;SDS011;6652;48.802;9.190;2023-05-14T09:26:56;8.88;;;7.93;;
13173;SDS011;6652;48.802;9.190;2023-05-14T09:29:27;11.07;;;9.02;;
13173;SDS011;6652;48.802;9.190;2023-05-14T09:31:58;12.50;;;9.65;;
13173;SDS011;6652;48.802;9.190;2023-05-14T09:34:28;12.40;;;9.57;;
13173;SDS011;6652;48.802;9.190;2023-05-14T09:36:57;12.10;;;8.85;;
13173;SDS011;6652;48.802;9.190;2023-05-14T09:39:25;10.73;;;8.68;;
13173;SDS011;6652;48.802;9.190;2023-05-14T09:41:52;9.60;;;8.60;;
13173;SDS011;6652;48.802;9.190;2023-05-14T09:44:20;10.05;;;8.20;;
13173;SDS011;6652;48.802;9.190;2023-05-14T09:46:47;10.75;;;8.00;;
13173;SDS011;6652;48.802;9.190;2023-05-14T09:49:16;11.77;;;8.82;;
13173;SDS011;6652;48.802;9.190;2023-05-14T09:51:43;8.70;;;7.68;;
13173;SDS011;6652;48.802;9.190;2023-05-14T09:54:13;8.70;;;6.93;;
13173;SDS011;6652;48.802;9.190;2023-05-14T09:56:41;8.50;;;6.47;;
13173;SDS011;6652;48.802;9.190;2023-05-14T09:59:09;8.48;;;7.25;;
13173;SDS011;6652;48.802;9.190;2023-05-14T10:01:42;10.38;;;7.07;;
13173;SDS011;6652;48.802;9.190;2023-05-14T10:04:11;11.48;;;7.97;;
13173;SDS011;6652;48.802;9.190;2023-05-14T10:06:49;10.60;;;7.93;;
13173;SDS011;6652;48.802;9.190;2023-05-14T10:09:20;14.50;;;9.10;;
13173;SDS011;6652;48.802;9.190;2023-05-14T10:11:52;12.43;;;9.55;;
13173;SDS011;6652;48.802;9.190;2023-05-14T10:14:33;11.15;;;9.40;;
13173;SDS011;6652;48.802;9.190;2023-05-14T10:17:17;13.05;;;7.95;;
13173;SDS011;6652;48.802;9.190;2023-05-14T10:30:20;9.52;;;7.25;;
13173;SDS011;6652;48.802;9.190;2023-05-14T10:32:48;9.23;;;7.28;;
13173;SDS011;6652;48.802;9.190;2023-05-14T10:35:15;7.63;;;6.40;;
13173;SDS011;6652;48.802;9.190;2023-05-14T10:37:44;8.25;;;6.60;;
13173;SDS011;6652;48.802;9.190;2023-05-14T10:40:11;10.38;;;6.40;;
13173;SDS011;6652;48.802;9.190;2023-05-14T10:42:39;7.07;;;6.22;;
13173;SDS011;6652;48.802;9.190;2023-05-14T10:45:08;9.07;;;6.90;;
13173;SDS011;6652;48.802;9.190;2023-05-14T10:47:38;7.50;;;6.25;;
13173;SDS011;6652;48.802;9.190;2023-05-14T10:50:07;7.78;;;6.97;;
13173;SDS011;6652;48.802;9.190;2023-05-14T10:52:36;11.07;;;6.60;;
13173;SDS011;6652;48.802;9.190;2023-05-14T10:55:03;10.50;;;6.43;;
13173;SDS011;6652;48.802;9.190;2023-05-14T10:57:33;9.43;;;6.47;;
13173;SDS011;6652;48.802;9.190;2023-05-14T11:00:01;9.18;;;6.72;;
13173;SDS011;6652;48.802;9.190;2023-05-14T11:02:32;9.13;;;7.18;;
13173;SDS011;6652;48.802;9.190;2023-05-14T11:05:03;9.30;;;7.00;;
13173;SDS011;6652;48.802;9.190;2023-05-14T11:07:33;7.78;;;6.97;;
13173;SDS011;6652;48.802;9.190;2023-05-14T11:10:01;11.98;;;7.55;;
13173;SDS011;6652;48.802;9.190;2023-05-14T11:12:29;9.32;;;7.25;;
13173;SDS011;6652;48.802;9.190;2023-05-14T11:14:58;8.80;;;7.05;;
13173;SDS011;6652;48.802;9.190;2023-05-14T11:17:28;9.27;;;6.85;;
13173;SDS011;6652;48.802;9.190;2023-05-14T11:20:01;8.93;;;7.13;;
13173;SDS011;6652;48.802;9.190;2023-05-14T11:25:50;13.38;;;5.57;;
13173;SDS011;6652;48.802;9.190;2023-05-14T11:28:28;8.60;;;6.25;;
13173;SDS011;6652;48.802;9.190;2023-05-14T11:31:02;10.85;;;7.10;;
13173;SDS011;6652;48.802;9.190;2023-05-14T11:33:29;8.95;;;6.13;;
13173;SDS011;6652;48.802;9.190;2023-05-14T11:35:58;6.20;;;5.50;;
13173;SDS011;6652;48.802;9.190;2023-05-14T11:38:25;9.73;;;6.10;;
13173;SDS011;6652;48.802;9.190;2023-05-14T11:40:52;9.68;;;6.90;;
13173;SDS011;6652;48.802;9.190;2023-05-14T11:43:19;9.95;;;6.00;;
13173;SDS011;6652;48.802;9.190;2023-05-14T11:45:48;8.70;;;6.18;;
13173;SDS011;6652;48.802;9.190;2023-05-14T11:48:15;7.45;;;6.03;;
13173;SDS011;6652;48.802;9.190;2023-05-14T11:50:43;9.45;;;5.28;;
13173;SDS011;6652;48.802;9.190;2023-05-14T11:53:16;7.45;;;5.43;;
13173;SDS011;6652;48.802;9.190;2023-05-14T11:58:11;11.25;;;5.90;;
13173;SDS011;6652;48.802;9.190;2023-05-14T12:00:38;9.15;;;5.82;;
13173;SDS011;6652;48.802;9.190;2023-05-14T12:03:05;6.63;;;5.35;;
13173;SDS011;6652;48.802;9.190;2023-05-14T12:05:36;9.25;;;5.72;;
13173;SDS011;6652;48.802;9.190;2023-05-14T12:08:03;8.20;;;5.65;;
13173;SDS011;6652;48.802;9.190;2023-05-14T12:10:46;9.52;;;5.95;;
13173;SDS011;6652;48.802;9.190;2023-05-14T12:13:14;8.63;;;5.30;;
13173;SDS011;6652;48.802;9.190;2023-05-14T12:15:43;8.95;;;5.43;;
13173;SDS011;6652;48.802;9.190;2023-05-14T12:18:12;6.28;;;5.25;;
13173;SDS011;6652;48.802;9.190;2023-05-14T12:20:45;8.40;;;4.90;;
13173;SDS011;6652;48.802;9.190;2023-05-14T12:23:13;8.25;;;5.22;;
13173;SDS011;6652;48.802;9.190;2023-05-14T12:29:03;6.22;;;4.65;;
13173;SDS011;6652;48.802;9.190;2023-05-14T12:31:45;10.85;;;5.32;;
13173;SDS011;6652;48.802;9.190;2023-05-14T12:34:24;6.65;;;4.85;;
13173;SDS011;6652;48.802;9.190;2023-05-14T12:39:48;6.70;;;4.88;;
13173;SDS011;6652;48.802;9.190;2023-05-14T12:42:31;4.30;;;3.90;;
13173;SDS011;6652;48.802;9.190;2023-05-14T12:44:59;10.73;;;4.53;;
13173;SDS011;6652;48.802;9.190;2023-05-14T12:47:29;4.78;;;3.72;;
13173;SDS011;6652;48.802;9.190;2023-05-14T12:49:56;6.95;;;3.72;;
13173;SDS011;6652;48.802;9.190;2023-05-14T12:52:23;4.68;;;3.92;;
13173;SDS011;6652;48.802;9.190;2023-05-14T12:54:51;7.03;;;4.25;;
13173;SDS011;6652;48.802;9.190;2023-05-14T12:57:18;4.97;;;4.43;;
13173;SDS011;6652;48.802;9.190;2023-05-14T12:59:45;4.78;;;3.92;;
13173;SDS011;6652;48.802;9.190;2023-05-14T13:02:13;6.05;;;4.18;;
13173;SDS011;6652;48.802;9.190;2023-05-14T13:04:47;5.72;;;4.22;;
13173;SDS011;6652;48.802;9.190;2023-05-14T13:09:41;6.05;;;3.97;;
13173;SDS011;6652;48.802;9.190;2023-05-14T13:12:08;4.90;;;3.90;;
13173;SDS011;6652;48.802;9.190;2023-05-14T13:14:34;4.72;;;3.67;;
13173;SDS011;6652;48.802;9.190;2023-05-14T13:17:02;3.97;;;3.58;;
13173;SDS011;6652;48.802;9.190;2023-05-14T13:19:32;4.82;;;3.60;;
13173;SDS011;6652;48.802;9.190;2023-05-14T13:22:09;5.97;;;4.35;;
13173;SDS011;6652;48.802;9.190;2023-05-14T13:24:36;4.50;;;3.80;;
13173;SDS011;6652;48.802;9.190;2023-05-14T13:27:04;6.03;;;4.10;;
13173;SDS011;6652;48.802;9.190;2023-05-14T13:29:30;10.73;;;4.28;;
13173;SDS011;6652;48.802;9.190;2023-05-14T13:31:57;4.20;;;3.78;;
13173;SDS011;6652;48.802;9.190;2023-05-14T13:34:24;4.45;;;3.92;;
13173;SDS011;6652;48.802;9.190;2023-05-14T13:36:52;5.15;;;3.80;;
13173;SDS011;6652;48.802;9.190;2023-05-14T13:39:19;6.68;;;3.90;;
13173;SDS011;6652;48.802;9.190;2023-05-14T13:41:50;6.90;;;3.67;;
13173;SDS011;6652;48.802;9.190;2023-05-14T13:44:17;4.28;;;3.88;;
13173;SDS011;6652;48.802;9.190;2023-05-14T13:46:44;4.72;;;3.90;;
13173;SDS011;6652;48.802;9.190;2023-05-14T13:49:11;5.95;;;3.35;;
13173;SDS011;6652;48.802;9.190;2023-05-14T13:51:38;8.00;;;4.25;;
13173;SDS011;6652;48.802;9.190;2023-05-14T13:54:06;5.40;;;3.85;;
13173;SDS011;6652;48.802;9.190;2023-05-14T13:56:33;5.88;;;3.65;;
13173;SDS011;6652;48.802;9.190;2023-05-14T13:59:00;6.88;;;4.40;;
13173;SDS011;6652;48.802;9.190;2023-05-14T14:01:27;5.18;;;4.10;;
13173;SDS011;6652;48.802;9.190;2023-05-14T14:03:54;4.05;;;3.67;;
13173;SDS011;6652;48.802;9.190;2023-05-14T14:06:21;6.00;;;4.28;;
13173;SDS011;6652;48.802;9.190;2023-05-14T14:08:48;6.45;;;3.67;;
13173;SDS011;6652;48.802;9.190;2023-05-14T14:11:16;4.65;;;3.67;;
13173;SDS011;6652;48.802;9.190;2023-05-14T14:13:43;3.95;;;3.55;;
13173;SDS011;6652;48.802;9.190;2023-05-14T14:16:10;7.10;;;3.63;;
13173;SDS011;6652;48.802;9.190;2023-05-14T14:18:37;6.40;;;3.83;;
13173;SDS011;6652;48.802;9.190;2023-05-14T14:21:04;3.97;;;3.28;;
13173;SDS011;6652;48.802;9.190;2023-05-14T14:23:31;3.55;;;3.00;;
13173;SDS011;6652;48.802;9.190;2023-05-14T14:25:57;5.03;;;3.30;;
13173;SDS011;6652;48.802;9.190;2023-05-14T14:28:26;4.90;;;3.50;;
13173;SDS011;6652;48.802;9.190;2023-05-14T14:30:52;4.95;;;3.45;;
13173;SDS011;6652;48.802;9.190;2023-05-14T14:33:19;3.95;;;3.22;;
13173;SDS011;6652;48.802;9.190;2023-05-14T14:35:46;4.40;;;3.70;;
13173;SDS011;6652;48.802;9.190;2023-05-14T14:38:13;6.05;;;3.55;;
13173;SDS011;6652;48.802;9.190;2023-05-14T14:40:40;3.60;;;3.30;;
13173;SDS011;6652;48.802;9.190;2023-05-14T14:43:06;6.80;;;3.72;;
13173;SDS011;6652;48.802;9.190;2023-05-14T14:45:35;6.68;;;3.45;;
13173;SDS011;6652;48.802;9.190;2023-05-14T14:48:21;3.85;;;3.28;;
13173;SDS011;6652;48.802;9.190;2023-05-14T14:50:49;5.20;;;2.75;;
13173;SDS011;6652;48.802;9.190;2023-05-14T14:53:16;6.90;;;2.95;;
13173;SDS011;6652;48.802;9.190;2023-05-14T14:55:43;4.28;;;3.00;;
13173;SDS011;6652;48.802;9.190;2023-05-14T14:58:10;5.13;;;2.58;;
13173;SDS011;6652;48.802;9.190;2023-05-14T15:00:38;3.05;;;2.60;;
13173;SDS011;6652;48.802;9.190;2023-05-14T15:03:05;2.95;;;2.50;;
13173;SDS011;6652;48.802;9.190;2023-05-14T15:05:33;4.25;;;2.55;;
13173;SDS011;6652;48.802;9.190;2023-05-14T15:07:59;4.03;;;2.70;;
13173;SDS011;6652;48.802;9.190;2023-05-14T15:10:27;3.85;;;2.60;;
13173;SDS011;6652;48.802;9.190;2023-05-14T15:12:55;4.00;;;2.92;;
13173;SDS011;6652;48.802;9.190;2023-05-14T15:15:22;3.40;;;2.60;;
13173;SDS011;6652;48.802;9.190;2023-05-14T15:17:51;3.30;;;3.00;;
13173;SDS011;6652;48.802;9.190;2023-05-14T15:20:17;5.53;;;3.55;;
13173;SDS011;6652;48.802;9.190;2023-05-14T15:22:44;7.88;;;3.15;;
13173;SDS011;6652;48.802;9.190;2023-05-14T15:25:11;17.33;;;3.50;;
13173;SDS011;6652;48.802;9.190;2023-05-14T15:27:38;6.43;;;3.97;;
13173;SDS011;6652;48.802;9.190;2023-05-14T15:30:06;5.35;;;3.25;;
13173;SDS011;6652;48.802;9.190;2023-05-14T15:32:34;4.68;;;3.72;;
13173;SDS011;6652;48.802;9.190;2023-05-14T15:35:07;7.40;;;4.68;;
13173;SDS011;6652;48.802;9.190;2023-05-14T15:37:35;7.75;;;4.90;;
13173;SDS011;6652;48.802;9.190;2023-05-14T15:40:03;10.63;;;4.65;;
13173;SDS011;6652;48.802;9.190;2023-05-14T15:42:32;12.25;;;5.38;;
13173;SDS011;6652;48.802;9.190;2023-05-14T15:44:59;13.25;;;5.15;;
13173;SDS011;6652;48.802;9.190;2023-05-14T15:47:26;9.05;;;4.93;;
13173;SDS011;6652;48.802;9.190;2023-05-14T15:49:53;6.75;;;4.60;;
13173;SDS011;6652;48.802;9.190;2023-05-14T15:52:21;6.38;;;4.90;;
13173;SDS011;6652;48.802;9.190;2023-05-14T15:54:50;8.48;;;5.45;;
13173;SDS011;6652;48.802;9.190;2023-05-14T15:57:18;9.90;;;4.80;;
13173;SDS011;6652;48.802;9.190;2023-05-14T15:59:45;4.88;;;4.38;;
13173;SDS011;6652;48.802;9.190;2023-05-14T16:02:12;5.53;;;4.70;;
13173;SDS011;6652;48.802;9.190;2023-05-14T16:04:40;6.95;;;4.70;;
13173;SDS011;6652;48.802;9.190;2023-05-14T16:07:09;8.00;;;5.68;;
13173;SDS011;6652;48.802;9.190;2023-05-14T16:09:38;5.57;;;4.47;;
13173;SDS011;6652;48.802;9.190;2023-05-14T16:12:05;6.22;;;5.10;;
13173;SDS011;6652;48.802;9.190;2023-05-14T16:14:33;13.02;;;6.30;;
13173;SDS011;6652;48.802;9.190;2023-05-14T16:17:01;5.90;;;4.32;;
13173;SDS011;6652;48.802;9.190;2023-05-14T16:19:30;7.70;;;4.25;;
13173;SDS011;6652;48.802;9.190;2023-05-14T16:21:57;5.00;;;4.47;;
13173;SDS011;6652;48.802;9.190;2023-05-14T16:24:29;6.78;;;4.40;;
13173;SDS011;6652;48.802;9.190;2023-05-14T16:27:52;9.82;;;4.63;;
13173;SDS011;6652;48.802;9.190;2023-05-14T16:33:42;3.85;;;3.45;;
13173;SDS011;6652;48.802;9.190;2023-05-14T16:36:09;4.68;;;3.80;;
13173;SDS011;6652;48.802;9.190;2023-05-14T16:38:54;6.97;;;3.30;;
13173;SDS011;6652;48.802;9.190;2023-05-14T16:41:37;4.85;;;3.83;;
13173;SDS011;6652;48.802;9.190;2023-05-14T16:47:19;6.80;;;3.45;;
13173;SDS011;6652;48.802;9.190;2023-05-14T16:49:46;5.10;;;4.10;;
13173;SDS011;6652;48.802;9.190;2023-05-14T16:52:13;5.53;;;3.80;;
13173;SDS011;6652;48.802;9.190;2023-05-14T16:54:40;6.03;;;3.33;;
13173;SDS011;6652;48.802;9.190;2023-05-14T16:57:07;3.45;;;2.88;;
13173;SDS011;6652;48.802;9.190;2023-05-14T16:59:34;5.03;;;2.60;;
13173;SDS011;6652;48.802;9.190;2023-05-14T17:02:01;4.35;;;3.35;;
13173;SDS011;6652;48.802;9.190;2023-05-14T17:04:29;6.50;;;3.25;;
13173;SDS011;6652;48.802;9.190;2023-05-14T17:06:57;3.50;;;2.90;;
13173;SDS011;6652;48.802;9.190;2023-05-14T17:09:25;7.85;;;3.42;;
13173;SDS011;6652;48.802;9.190;2023-05-14T17:11:52;4.13;;;3.38;;
13173;SDS011;6652;48.802;9.190;2023-05-14T17:14:19;8.85;;;3.80;;
13173;SDS011;6652;48.802;9.190;2023-05-14T17:16:46;4.20;;;3.40;;
13173;SDS011;6652;48.802;9.190;2023-05-14T17:19:14;6.55;;;3.78;;
13173;SDS011;6652;48.802;9.190;2023-05-14T17:21:42;4.10;;;3.60;;
13173;SDS011;6652;48.802;9.190;2023-05-14T17:24:09;6.00;;;3.67;;
13173;SDS011;6652;48.802;9.190;2023-05-14T17:29:48;5.57;;;3.40;;
13173;SDS011;6652;48.802;9.190;2023-05-14T17:32:15;4.68;;;3.67;;
13173;SDS011;6652;48.802;9.190;2023-05-14T17:34:44;3.88;;;3.47;;
13173;SDS011;6652;48.802;9.190;2023-05-14T17:37:13;4.45;;;3.50;;
13173;SDS011;6652;48.802;9.190;2023-05-14T17:39:40;3.80;;;3.38;;
13173;SDS011;6652;48.802;9.190;2023-05-14T17:42:07;3.72;;;3.10;;
13173;SDS011;6652;48.802;9.190;2023-05-14T17:44:34;5.32;;;3.38;;
13173;SDS011;6652;48.802;9.190;2023-05-14T17:47:02;4.70;;;3.42;;
13173;SDS011;6652;48.802;9.190;2023-05-14T17:49:31;4.45;;;3.50;;
13173;SDS011;6652;48.802;9.190;2023-05-14T17:51:57;4.88;;;3.22;;
13173;SDS011;6652;48.802;9.190;2023-05-14T17:54:26;4.47;;;3.20;;
13173;SDS011;6652;48.802;9.190;2023-05-14T17:56:52;5.47;;;2.92;;
13173;SDS011;6652;48.802;9.190;2023-05-14T17:59:24;5.15;;;3.67;;
13173;SDS011;6652;48.802;9.190;2023-05-14T18:01:52;7.07;;;3.05;;
13173;SDS011;6652;48.802;9.190;2023-05-14T18:04:18;4.28;;;3.22;;